Terminal Aerodrome Forecast
Issued by NWS Corpus Christi, TX

Home | Current Version | Previous Version | Text Only | Print | Product List | Glossary On
Versions: 1 2 3 4 5 6 7 8 9 10 11 12 13 14 15 16
000
FTUS44 KCRP 212300
TAFVCT
TAF
KVCT 212325Z 2200/2224 07010KT P6SM FEW040
     FM220100 09005KT P6SM SKC
     FM220900 VRB03KT 4SM BR SKC
      TEMPO 2211/2213 2SM BR SCT005
     FM221400 03006KT P6SM SKC
     FM221900 07009KT P6SM SCT050=

USA.gov is the U.S. government's official web portal to all federal, state and local government web resources and services.